createdAt,value
2022-10-22T00:02:32.055Z,100
2022-10-22T00:12:32.388Z,100
2022-10-22T00:22:32.769Z,100
2022-10-22T00:32:33.151Z,100
2022-10-22T00:42:33.347Z,100
2022-10-22T00:52:33.931Z,100
2022-10-22T01:02:34.491Z,100
2022-10-22T01:12:35.205Z,100
2022-10-22T01:22:35.355Z,100
2022-10-22T01:32:35.924Z,100
2022-10-22T01:42:36.881Z,100
2022-10-22T01:52:37.831Z,100
2022-10-22T02:02:37.993Z,100
2022-10-22T02:12:38.650Z,100
2022-10-22T02:22:39.339Z,100
2022-10-22T02:32:39.708Z,100
2022-10-22T02:42:40.307Z,100
2022-10-22T02:52:41.375Z,100
2022-10-22T03:02:41.131Z,100
2022-10-22T03:12:41.286Z,100
2022-10-22T03:22:42.048Z,100
2022-10-22T03:32:42.276Z,100
2022-10-22T03:42:43.262Z,100
2022-10-22T03:52:43.447Z,100
2022-10-22T04:02:44.260Z,100
2022-10-22T04:12:44.434Z,100
2022-10-22T04:22:44.665Z,100
2022-10-22T04:32:45.704Z,100
2022-10-22T04:42:46.404Z,100
2022-10-22T04:52:46.725Z,100
2022-10-22T05:02:47.593Z,100
2022-10-22T05:12:48.001Z,100
2022-10-22T05:22:48.039Z,100
2022-10-22T05:32:48.809Z,100
2022-10-22T05:42:49.148Z,100
2022-10-22T05:52:50.011Z,100
2022-10-22T06:02:50.160Z,100
2022-10-22T06:22:51.106Z,100
2022-10-22T06:32:51.214Z,100
2022-10-22T06:52:51.551Z,100
2022-10-22T07:02:53.648Z,100
2022-10-22T07:12:53.362Z,100
2022-10-22T07:22:53.729Z,100
2022-10-22T07:32:54.292Z,100
2022-10-22T07:52:56.148Z,100
2022-10-22T08:12:55.973Z,94
2022-10-22T08:22:56.945Z,93
2022-10-22T08:32:57.895Z,93
2022-10-22T08:42:57.985Z,92
2022-10-22T08:52:58.293Z,92
2022-10-22T09:02:58.341Z,91
2022-10-22T09:12:58.597Z,91
2022-10-22T09:22:58.957Z,90
2022-10-22T09:53:01.146Z,89
2022-10-22T10:13:02.788Z,89
2022-10-22T10:33:03.561Z,89
2022-10-22T10:43:04.308Z,89
2022-10-22T10:53:04.791Z,88
2022-10-22T11:43:07.238Z,87
2022-10-22T11:53:07.774Z,87
2022-10-22T12:03:08.181Z,87
2022-10-22T12:13:08.892Z,87
2022-10-22T12:23:09.422Z,87
2022-10-22T12:33:10.293Z,87
2022-10-22T12:53:11.457Z,87
2022-10-22T13:03:12.275Z,87
2022-10-22T13:13:12.693Z,87
2022-10-22T13:23:13.134Z,87
2022-10-22T13:33:13.432Z,87
2022-10-22T13:53:17.755Z,87
2022-10-22T14:03:15.450Z,87
2022-10-22T14:03:37.371Z,87
2022-10-22T14:23:21.960Z,88
2022-10-22T14:33:25.800Z,87
2022-10-22T14:43:23.320Z,87
2022-10-22T15:03:24.239Z,87
2022-10-22T15:13:25.234Z,87
2022-10-22T15:23:25.542Z,87
2022-10-22T15:33:25.799Z,87
2022-10-22T15:43:26.574Z,87
2022-10-22T16:03:27.563Z,88
2022-10-22T16:13:27.996Z,88
2022-10-22T16:23:28.865Z,88
2022-10-22T16:33:36.631Z,89
2022-10-22T16:53:30.095Z,91
2022-10-22T17:13:31.121Z,93
2022-10-22T17:23:31.209Z,93
2022-10-22T17:33:32.219Z,94
2022-10-22T17:43:32.878Z,95
2022-10-22T17:53:33.283Z,95
2022-10-22T18:03:34.109Z,96
2022-10-22T18:13:34.663Z,96
2022-10-22T18:23:35.435Z,98
2022-10-22T18:33:35.809Z,99
2022-10-22T18:43:35.857Z,100
2022-10-22T18:53:36.366Z,100
2022-10-22T19:03:36.597Z,100
2022-10-22T19:13:37.238Z,100
2022-10-22T19:23:37.586Z,100
2022-10-22T19:43:38.403Z,100
2022-10-22T19:53:39.435Z,100
2022-10-22T20:03:40.179Z,100
2022-10-22T20:13:40.565Z,100
2022-10-22T20:23:41.094Z,100
2022-10-22T20:33:42.106Z,100
2022-10-22T20:43:43.073Z,100
2022-10-22T20:53:44.106Z,100
2022-10-22T21:03:45.071Z,100
2022-10-22T21:23:46.061Z,100
2022-10-22T21:33:46.350Z,100
2022-10-22T21:43:46.764Z,100
2022-10-22T22:03:47.772Z,99
2022-10-22T22:13:48.627Z,99
2022-10-22T22:23:48.986Z,99
2022-10-22T22:33:49.709Z,99
2022-10-22T22:43:50.060Z,100
2022-10-22T22:53:51.029Z,100
2022-10-22T23:03:51.962Z,100
2022-10-22T23:13:52.160Z,100
2022-10-22T23:23:52.346Z,100
2022-10-22T23:43:52.846Z,100
2022-10-22T23:53:53.517Z,100
